Portada
METAR-TAF:

METAR-TAF

Aeroports :

Dehradun, Índia

latitud: 30-11-23N, longitud: 78-10-49E, altitud: 558 m

Observació

L'informe es va fer fa 1 hora i 9 minuts, a les 04:00 UTC
Vent calma
Temperatura 22°C
Humitat 65%
Pressió 1017 hPa
Visibilitat: 4500 m
calitja

METAR: VIDN 210400Z 00000KT 4500 HZ NSC 22/15 Q1017

Hora: 10:39 (05:09 UTC)

Pronòstic

L'informe es va fer fa 6 hores i 9 minuts, a les 23:00 UTC
Pronòstic vàlid del 21 a les 00 UTC al 21 a les 09 UTC
Vent kt del Nord
Visibilitat: 2000 m
boirina
Evolucionant progressivament
l' 21 a les 05 UTC al 21 a les 07 UTC
Vent 5 kt del Sud-Oest
Visibilitat: 5000 m
Escasses núvols a una alçada de 10000 ft
calitja

TAF: VIDN 202300Z 2100/2109 00000KT 2000 BR NSC BECMG 2105/2107 23005KT 5000 HZ FEW100

Observacions i pronòstics meteorològics de més de 4000 aeroports (METAR i TAF).

Les estacions disponibles són els punts grocs i vermells al mapa.

Posi el ratolí al punt desitjat per veure el nom de l'estació.

Feu clic per veure les observacions i els pronòstics meteorològics.

Per canviar el mapa: feu clic els botons verds amb una creu de color negre per apropar; al botó verd amb un guió per allunyar la imatge; o en les fletxes verdes per a mapes adjacents.


METAR-TAF: